<<    Juni 2010    >>
Datum    Temp.       Tempmin      Tempmax    Taup.       Taup.min      Taup.max    Feuchte    Feuchtemin    Feuchtemax    Druck    Druckmin    Druckmax    Regen    Wind    Benmax  
  01.06.2010  14,9    11,4    02:59    20,4    15:45  10,8    8,7    17:29    12,6    00:00  78,7    50    15:38    98    00:00  1015,1    1013    19:02    1017    07:03  0,0  2,1  11,9  
  02.06.2010  16,6    10,4    05:50    22,5    14:00  9,1    5,4    13:38    11,1    07:40  64,0    34    13:38    95    06:41  1016,3    1013    01:32    1019    22:32  0,0  3,6  20,2  
  03.06.2010  18,3    10,8    05:44    25,4    16:48  7,9    4,9    21:07    10,2    00:09  54,9    31    16:56    86    06:04  1019,0    1017    17:32    1021    09:17  0,0  3,4  20,9  
  04.06.2010  19,0    10,8    05:21    26,7    16:52  8,1    4,1    21:28    12,1    10:48  53,3    27    18:22    84    06:55  1018,7    1017    00:02    1020    06:47  0,0  1,8  12,2  
  05.06.2010  20,6    11,7    05:52    28,9    15:50  8,5    5,2    22:08    12,0    08:38  50,5    25    18:15    83    06:36  1017,6    1015    17:02    1020    00:00  0,0  1,7  12,6  
  06.06.2010  21,2    14,5    04:37    30,8    14:09  12,9    7,7    00:00    18,4    16:32  61,2    30    14:18    83    22:34  1010,2    1006    19:46    1015    00:00  0,0  1,7  15,8  
  07.06.2010  18,7    14,7    04:57    23,8    17:15  10,3    6,3    19:27    16,5    00:38  60,7    35    17:24    90    00:44  1010,1    1008    00:00    1012    09:46  0,9  3,7  17,6  
  08.06.2010  19,7    14,0    03:56    26,9    13:51  11,8    8,8    00:26    15,5    18:45  61,9    37    13:55    77    04:07  1005,3    1002    18:31    1009    00:00  0,0  2,1  15,1  
  09.06.2010  20,2    17,3    06:01    23,5    17:02  15,5    13,2    02:34    18,4    23:59  75,3    61    17:00    94    23:59  1003,8    1003    01:46    1005    18:01  0,9  1,6  14,0  
  10.06.2010  20,7    17,1    05:12    25,1    15:10  17,6    16,6    20:23    19,0    09:32  83,7    63    20:20    98    01:42  1003,3    1001    19:31    1005    00:00  0,9  1,1  10,1  
  11.06.2010  21,7    16,7    23:51    28,1    16:48  14,3    9,3    13:55    18,7    09:06  68,3    32    13:55    98    02:20  1004,5    1002    02:15    1008    23:59  5,8  4,0  13,7  
  12.06.2010  15,6    13,8    23:59    17,1    09:48  13,1    9,3    23:52    14,9    11:55  85,1    73    00:00    96    14:57  1009,5    1007    03:15    1014    22:30  0,9  1,4  12,6  
  13.06.2010  15,1    8,8    04:54    21,3    15:10  7,5    4,6    18:05    10,2    08:26  63,9    37    15:36    94    06:19  1014,6    1011    21:15    1017    05:30  0,0  1,7  13,0  
  14.06.2010  18,9    12,5    02:36    25,1    17:22  7,6    4,5    22:11    10,6    10:39  50,8    31    14:34    74    02:37  1013,0    1011    00:01    1017    23:59  0,0  2,3  14,0  
  15.06.2010  17,6    13,9    06:30    21,9    16:27  6,6    2,1    21:40    9,5    05:46  50,1    33    17:44    74    05:43  1019,5    1016    02:15    1022    23:59  0,0  5,0  19,8  
  16.06.2010  18,1    10,1    05:37    25,5    16:56  5,7    3,6    00:10    8,6    07:57  47,1    27    16:45    79    06:37  1019,3    1016    18:14    1022    00:00  0,0  4,5  20,9  
  17.06.2010  19,2    11,3    05:32    25,7    14:50  6,1    3,8    03:16    9,6    16:55  43,7    27    14:54    67    05:57  1015,7    1013    16:14    1018    00:00  0,0  2,8  16,9  
  18.06.2010  15,5    13,2    23:59    20,7    16:14  9,1    5,9    23:59    11,0    19:57  66,5    43    16:21    79    05:35  1012,9    1011    17:29    1014    00:00  0,0  4,2  17,6  
  19.06.2010  13,1    11,0    23:44    18,3    15:32  6,0    3,9    11:30    8,9    18:01  62,4    41    15:36    74    08:02  1009,0    1007    13:44    1012    00:00  0,0  3,8  20,9  
  20.06.2010  13,1    10,1    04:39    16,2    16:16  6,9    4,8    00:01    9,2    08:49  66,9    49    13:11    88    06:34  1012,9    1009    00:00    1018    22:13  0,0  3,6  14,0  
  21.06.2010  14,5    11,0    00:57    19,4    17:57  5,8    3,9    18:40    7,9    09:43  57,4    39    18:00    74    06:25  1019,4    1017    01:28    1021    13:13  0,0  2,4  14,0  
  22.06.2010  17,5    11,9    06:28    23,5    15:14  7,0    5,0    18:59    10,3    08:47  52,5    32    16:59    78    07:27  1021,7    1021    00:00    1023    11:43  0,0  1,7  12,2  
  23.06.2010  19,2    10,7    05:21    26,9    17:04  8,0    6,6    18:57    10,8    08:37  52,4    30    15:32    83    06:34  1020,7    1018    18:58    1023    05:13  0,0  1,5  10,4  
  24.06.2010  21,5    12,8    05:53    29,9    15:31  9,7    8,0    19:10    12,6    09:19  50,8    27    15:32    81    06:44  1016,6    1014    18:28    1018    00:00  0,0  1,6  15,5  
  25.06.2010  21,6    16,2    06:09    28,0    14:51  10,3    7,2    18:32    12,8    08:26  50,8    30    14:54    73    06:31  1015,7    1014    16:42    1017    00:58  0,0  3,0  17,3  
  26.06.2010  21,6    13,5    05:49    29,1    16:59  9,3    6,1    21:51    12,4    08:28  49,5    28    17:03    81    05:58  1016,2    1015    00:00    1017    04:57  0,0  2,0  11,9  
  27.06.2010  23,6    14,4    05:37    31,9    17:22  9,8    6,9    00:59    11,8    23:48  44,2    26    17:33    72    06:16  1017,2    1016    01:27    1018    05:12  0,0  1,6  10,4  
  28.06.2010  24,7    17,7    05:42    32,5    15:32  11,2    7,4    18:15    13,5    10:17  46,2    23    17:35    70    05:37  1017,2    1016    00:12    1018    02:27  0,0  2,0  14,8  
  29.06.2010  22,9    17,0    05:41    28,3    13:32  12,5    10,5    00:02    14,5    11:16  53,1    34    13:39    75    06:39  1017,7    1016    18:11    1018    00:00  0,0  1,6  13,7  
  30.06.2010  23,4    15,5    05:25    31,2    16:16  11,4    8,8    19:30    13,7    08:43  50,0    26    17:02    77    05:56  1018,1    1016    16:41    1020    11:56  0,0  1,8  14,0  
 
  Gesamt  18,9  8,8            32,5            9,7  2,1            19,0            58,5  23            98            1014,4  1001            1023            9,4  2,5  20,9  
 
  Mittelwert  18,9  13,2            25,2            9,7  6,8            12,6            58,5  36,0            82,5            1014,4  1012,0            1016,6            0,3  2,5  14,9  
  Minimum  13,1  8,8            16,2            5,7  2,1            7,9            43,7  23,0            67,0            1003,3  1001,0            1005,0            0,0  1,1  10,1  
  Maximum  24,7  17,7            32,5            17,6  16,6            19,0            85,1  73,0            98,0            1021,7  1021,0            1023,0            5,8  5,0  20,9  

  Heie Tage    Tmax >=30C     4  
  Sommertage    Tmax >=25C     18  
  Warme Tage    Tmax >=20C     26  
  Kalte Tage    Tmax  <10C     0  
  Frosttage    Tmin  <0C     0  
  Eistage    Tmax  <0C     0  
  Regentage > 0 mm    5  
  Regentage > 2 mm    1  
  Regentage > 10 mm    0  
  Regentage > 20 mm    0